sensor_id;sensor_type;location;lat;lon;timestamp;temperature;humidity
10530;DHT22;5313;48.834;9.228;2023-02-14T00:02:20;0.90;99.90
10530;DHT22;5313;48.834;9.228;2023-02-14T00:04:45;0.90;99.90
10530;DHT22;5313;48.834;9.228;2023-02-14T00:07:12;0.90;99.90
10530;DHT22;5313;48.834;9.228;2023-02-14T00:09:38;0.90;99.90
10530;DHT22;5313;48.834;9.228;2023-02-14T00:12:04;0.90;99.90
10530;DHT22;5313;48.834;9.228;2023-02-14T00:14:30;1.00;99.90
10530;DHT22;5313;48.834;9.228;2023-02-14T00:17:13;0.90;99.90
10530;DHT22;5313;48.834;9.228;2023-02-14T00:19:39;0.90;99.90
10530;DHT22;5313;48.834;9.228;2023-02-14T00:22:04;0.90;99.90
10530;DHT22;5313;48.834;9.228;2023-02-14T00:24:30;0.80;99.90
10530;DHT22;5313;48.834;9.228;2023-02-14T00:26:56;0.70;99.90
10530;DHT22;5313;48.834;9.228;2023-02-14T00:29:24;0.70;99.90
10530;DHT22;5313;48.834;9.228;2023-02-14T00:31:50;0.60;99.90
10530;DHT22;5313;48.834;9.228;2023-02-14T00:34:17;0.60;99.90
10530;DHT22;5313;48.834;9.228;2023-02-14T00:36:43;0.70;99.90
10530;DHT22;5313;48.834;9.228;2023-02-14T00:39:10;0.50;99.90
10530;DHT22;5313;48.834;9.228;2023-02-14T00:41:37;0.50;99.90
10530;DHT22;5313;48.834;9.228;2023-02-14T00:44:02;0.50;99.90
10530;DHT22;5313;48.834;9.228;2023-02-14T00:46:28;0.60;99.90
10530;DHT22;5313;48.834;9.228;2023-02-14T00:48:54;0.60;99.90
10530;DHT22;5313;48.834;9.228;2023-02-14T00:51:20;0.40;99.90
10530;DHT22;5313;48.834;9.228;2023-02-14T00:53:48;0.50;99.90
10530;DHT22;5313;48.834;9.228;2023-02-14T00:56:14;0.30;99.90
10530;DHT22;5313;48.834;9.228;2023-02-14T00:58:40;0.50;99.90
10530;DHT22;5313;48.834;9.228;2023-02-14T01:01:07;0.50;99.90
10530;DHT22;5313;48.834;9.228;2023-02-14T01:03:34;0.50;99.90
10530;DHT22;5313;48.834;9.228;2023-02-14T01:06:00;0.50;99.90
10530;DHT22;5313;48.834;9.228;2023-02-14T01:08:26;0.40;99.90
10530;DHT22;5313;48.834;9.228;2023-02-14T01:10:51;0.50;99.90
10530;DHT22;5313;48.834;9.228;2023-02-14T01:13:18;0.60;99.90
10530;DHT22;5313;48.834;9.228;2023-02-14T01:15:46;0.60;99.90
10530;DHT22;5313;48.834;9.228;2023-02-14T01:18:13;0.60;99.90
10530;DHT22;5313;48.834;9.228;2023-02-14T01:20:39;0.60;99.90
10530;DHT22;5313;48.834;9.228;2023-02-14T01:23:04;0.60;99.90
10530;DHT22;5313;48.834;9.228;2023-02-14T01:25:30;0.60;99.90
10530;DHT22;5313;48.834;9.228;2023-02-14T01:27:56;0.60;99.90
10530;DHT22;5313;48.834;9.228;2023-02-14T01:30:22;0.50;99.90
10530;DHT22;5313;48.834;9.228;2023-02-14T01:32:47;0.50;99.90
10530;DHT22;5313;48.834;9.228;2023-02-14T01:35:13;0.40;99.90
10530;DHT22;5313;48.834;9.228;2023-02-14T01:37:38;0.40;99.90
10530;DHT22;5313;48.834;9.228;2023-02-14T01:40:07;0.40;99.90
10530;DHT22;5313;48.834;9.228;2023-02-14T01:42:33;0.30;99.90
10530;DHT22;5313;48.834;9.228;2023-02-14T01:45:06;0.40;99.90
10530;DHT22;5313;48.834;9.228;2023-02-14T01:47:38;0.40;99.90
10530;DHT22;5313;48.834;9.228;2023-02-14T01:50:21;0.40;99.90
10530;DHT22;5313;48.834;9.228;2023-02-14T01:53:03;0.40;99.90
10530;DHT22;5313;48.834;9.228;2023-02-14T01:55:36;0.50;99.90
10530;DHT22;5313;48.834;9.228;2023-02-14T01:58:10;0.50;99.90
10530;DHT22;5313;48.834;9.228;2023-02-14T02:00:37;0.40;99.90
10530;DHT22;5313;48.834;9.228;2023-02-14T02:03:38;0.20;99.90
10530;DHT22;5313;48.834;9.228;2023-02-14T02:06:10;0.20;99.90
10530;DHT22;5313;48.834;9.228;2023-02-14T02:08:41;0.10;99.90
10530;DHT22;5313;48.834;9.228;2023-02-14T02:11:08;0.10;99.90
10530;DHT22;5313;48.834;9.228;2023-02-14T02:13:34;0.10;99.90
10530;DHT22;5313;48.834;9.228;2023-02-14T02:16:20;0.20;99.90
10530;DHT22;5313;48.834;9.228;2023-02-14T02:21:47;0.20;99.90
10530;DHT22;5313;48.834;9.228;2023-02-14T02:27:16;0.10;99.90
10530;DHT22;5313;48.834;9.228;2023-02-14T02:30:09;-0.10;99.90
10530;DHT22;5313;48.834;9.228;2023-02-14T02:33:06;-0.10;99.90
10530;DHT22;5313;48.834;9.228;2023-02-14T02:38:30;-0.20;99.90
10530;DHT22;5313;48.834;9.228;2023-02-14T02:44:07;-0.20;99.90
10530;DHT22;5313;48.834;9.228;2023-02-14T02:46:40;-0.20;99.90
10530;DHT22;5313;48.834;9.228;2023-02-14T02:58:34;-0.10;99.90
10530;DHT22;5313;48.834;9.228;2023-02-14T03:01:05;-0.10;99.90
10530;DHT22;5313;48.834;9.228;2023-02-14T03:03:32;-0.10;99.90
10530;DHT22;5313;48.834;9.228;2023-02-14T03:06:17;-0.10;99.90
10530;DHT22;5313;48.834;9.228;2023-02-14T03:08:43;-0.10;99.90
10530;DHT22;5313;48.834;9.228;2023-02-14T03:11:08;-0.10;99.90
10530;DHT22;5313;48.834;9.228;2023-02-14T03:16:23;-0.10;99.90
10530;DHT22;5313;48.834;9.228;2023-02-14T03:25:03;-0.10;99.90
10530;DHT22;5313;48.834;9.228;2023-02-14T03:27:38;-0.20;99.90
10530;DHT22;5313;48.834;9.228;2023-02-14T03:33:39;-0.30;99.90
10530;DHT22;5313;48.834;9.228;2023-02-14T03:36:22;-0.40;99.90
10530;DHT22;5313;48.834;9.228;2023-02-14T03:39:03;-0.50;99.90
10530;DHT22;5313;48.834;9.228;2023-02-14T03:41:38;-0.50;99.90
10530;DHT22;5313;48.834;9.228;2023-02-14T03:44:08;-0.50;99.90
10530;DHT22;5313;48.834;9.228;2023-02-14T03:46:41;-0.50;99.90
10530;DHT22;5313;48.834;9.228;2023-02-14T03:49:11;-0.60;99.90
10530;DHT22;5313;48.834;9.228;2023-02-14T03:51:40;-0.60;99.90
10530;DHT22;5313;48.834;9.228;2023-02-14T03:54:09;-0.60;99.90
10530;DHT22;5313;48.834;9.228;2023-02-14T03:56:43;-0.70;99.90
10530;DHT22;5313;48.834;9.228;2023-02-14T03:59:20;-0.60;99.90
10530;DHT22;5313;48.834;9.228;2023-02-14T04:02:10;-0.60;99.90
10530;DHT22;5313;48.834;9.228;2023-02-14T04:04:41;-0.80;99.90
10530;DHT22;5313;48.834;9.228;2023-02-14T04:07:12;-0.80;99.90
10530;DHT22;5313;48.834;9.228;2023-02-14T04:09:38;-0.70;99.90
10530;DHT22;5313;48.834;9.228;2023-02-14T04:12:04;-0.60;99.90
10530;DHT22;5313;48.834;9.228;2023-02-14T04:14:30;-0.70;99.90
10530;DHT22;5313;48.834;9.228;2023-02-14T04:16:56;-0.70;99.90
10530;DHT22;5313;48.834;9.228;2023-02-14T04:19:40;-0.70;99.90
10530;DHT22;5313;48.834;9.228;2023-02-14T04:22:05;-0.80;99.90
10530;DHT22;5313;48.834;9.228;2023-02-14T04:24:31;-0.80;99.90
10530;DHT22;5313;48.834;9.228;2023-02-14T04:26:56;-0.70;99.90
10530;DHT22;5313;48.834;9.228;2023-02-14T04:29:45;-0.60;99.90
10530;DHT22;5313;48.834;9.228;2023-02-14T04:32:14;-0.60;99.90
10530;DHT22;5313;48.834;9.228;2023-02-14T04:34:40;-0.50;99.90
10530;DHT22;5313;48.834;9.228;2023-02-14T04:37:06;-0.50;99.90
10530;DHT22;5313;48.834;9.228;2023-02-14T04:39:33;-0.50;99.90
10530;DHT22;5313;48.834;9.228;2023-02-14T04:41:58;-0.60;99.90
10530;DHT22;5313;48.834;9.228;2023-02-14T04:44:24;-0.70;99.90
10530;DHT22;5313;48.834;9.228;2023-02-14T04:46:50;-0.70;99.90
10530;DHT22;5313;48.834;9.228;2023-02-14T04:49:16;-0.80;99.90
10530;DHT22;5313;48.834;9.228;2023-02-14T04:51:42;-0.70;99.90
10530;DHT22;5313;48.834;9.228;2023-02-14T04:54:07;-0.90;99.90
10530;DHT22;5313;48.834;9.228;2023-02-14T04:56:33;-0.80;99.90
10530;DHT22;5313;48.834;9.228;2023-02-14T04:58:59;-0.80;99.90
10530;DHT22;5313;48.834;9.228;2023-02-14T05:01:25;-0.70;99.90
10530;DHT22;5313;48.834;9.228;2023-02-14T05:03:50;-0.70;99.90
10530;DHT22;5313;48.834;9.228;2023-02-14T05:06:16;-0.80;99.90
10530;DHT22;5313;48.834;9.228;2023-02-14T05:08:41;-0.90;99.90
10530;DHT22;5313;48.834;9.228;2023-02-14T05:11:07;-0.90;99.90
10530;DHT22;5313;48.834;9.228;2023-02-14T05:13:32;-0.80;99.90
10530;DHT22;5313;48.834;9.228;2023-02-14T05:15:58;-0.80;99.90
10530;DHT22;5313;48.834;9.228;2023-02-14T05:18:24;-0.80;99.90
10530;DHT22;5313;48.834;9.228;2023-02-14T05:20:50;-0.80;99.90
10530;DHT22;5313;48.834;9.228;2023-02-14T05:23:16;-0.90;99.90
10530;DHT22;5313;48.834;9.228;2023-02-14T05:25:42;-1.00;99.90
10530;DHT22;5313;48.834;9.228;2023-02-14T05:28:09;-1.00;99.90
10530;DHT22;5313;48.834;9.228;2023-02-14T05:30:35;-0.90;99.90
10530;DHT22;5313;48.834;9.228;2023-02-14T05:33:01;-1.00;99.90
10530;DHT22;5313;48.834;9.228;2023-02-14T05:35:27;-0.90;99.90
10530;DHT22;5313;48.834;9.228;2023-02-14T05:37:52;-1.00;99.90
10530;DHT22;5313;48.834;9.228;2023-02-14T05:40:18;-1.20;99.90
10530;DHT22;5313;48.834;9.228;2023-02-14T05:42:44;-1.20;99.90
10530;DHT22;5313;48.834;9.228;2023-02-14T05:45:10;-1.20;99.90
10530;DHT22;5313;48.834;9.228;2023-02-14T05:47:36;-1.10;99.90
10530;DHT22;5313;48.834;9.228;2023-02-14T05:50:03;-1.10;99.90
10530;DHT22;5313;48.834;9.228;2023-02-14T05:52:28;-1.10;99.90
10530;DHT22;5313;48.834;9.228;2023-02-14T05:54:54;-1.10;99.90
10530;DHT22;5313;48.834;9.228;2023-02-14T05:57:19;-1.20;99.90
10530;DHT22;5313;48.834;9.228;2023-02-14T05:59:45;-1.20;99.90
10530;DHT22;5313;48.834;9.228;2023-02-14T06:02:10;-1.10;99.90
10530;DHT22;5313;48.834;9.228;2023-02-14T06:04:36;-1.20;99.90
10530;DHT22;5313;48.834;9.228;2023-02-14T06:07:02;-1.20;99.90
10530;DHT22;5313;48.834;9.228;2023-02-14T06:09:27;-1.30;99.90
10530;DHT22;5313;48.834;9.228;2023-02-14T06:11:53;-1.30;99.90
10530;DHT22;5313;48.834;9.228;2023-02-14T06:14:18;-1.40;99.90
10530;DHT22;5313;48.834;9.228;2023-02-14T06:16:44;-1.40;99.90
10530;DHT22;5313;48.834;9.228;2023-02-14T06:19:09;-1.30;99.90
10530;DHT22;5313;48.834;9.228;2023-02-14T06:21:35;-1.20;99.90
10530;DHT22;5313;48.834;9.228;2023-02-14T06:24:00;-1.20;99.90
10530;DHT22;5313;48.834;9.228;2023-02-14T06:26:26;-1.30;99.90
10530;DHT22;5313;48.834;9.228;2023-02-14T06:28:56;-1.30;99.90
10530;DHT22;5313;48.834;9.228;2023-02-14T06:31:21;-1.30;99.90
10530;DHT22;5313;48.834;9.228;2023-02-14T06:33:47;-1.30;99.90
10530;DHT22;5313;48.834;9.228;2023-02-14T06:36:13;-1.30;99.90
10530;DHT22;5313;48.834;9.228;2023-02-14T06:38:38;-1.40;99.90
10530;DHT22;5313;48.834;9.228;2023-02-14T06:41:06;-1.40;99.90
10530;DHT22;5313;48.834;9.228;2023-02-14T06:43:32;-1.50;99.90
10530;DHT22;5313;48.834;9.228;2023-02-14T06:45:58;-1.30;99.90
10530;DHT22;5313;48.834;9.228;2023-02-14T06:48:24;-1.30;99.90
10530;DHT22;5313;48.834;9.228;2023-02-14T06:50:49;-1.40;99.90
10530;DHT22;5313;48.834;9.228;2023-02-14T06:53:17;-1.50;99.90
10530;DHT22;5313;48.834;9.228;2023-02-14T06:55:42;-1.40;99.90
10530;DHT22;5313;48.834;9.228;2023-02-14T06:58:07;-1.30;99.90
10530;DHT22;5313;48.834;9.228;2023-02-14T07:00:33;-1.30;99.90
10530;DHT22;5313;48.834;9.228;2023-02-14T07:02:59;-1.20;99.90
10530;DHT22;5313;48.834;9.228;2023-02-14T07:05:24;-1.20;99.90
10530;DHT22;5313;48.834;9.228;2023-02-14T07:07:50;-1.20;99.90
10530;DHT22;5313;48.834;9.228;2023-02-14T07:10:15;-1.20;99.90
10530;DHT22;5313;48.834;9.228;2023-02-14T07:12:41;-1.20;99.90
10530;DHT22;5313;48.834;9.228;2023-02-14T07:15:08;-1.20;99.90
10530;DHT22;5313;48.834;9.228;2023-02-14T07:17:34;-1.30;99.90
10530;DHT22;5313;48.834;9.228;2023-02-14T07:20:00;-1.30;99.90
10530;DHT22;5313;48.834;9.228;2023-02-14T07:22:25;-1.30;99.90
10530;DHT22;5313;48.834;9.228;2023-02-14T07:24:51;-1.30;99.90
10530;DHT22;5313;48.834;9.228;2023-02-14T07:27:16;-1.40;99.90
10530;DHT22;5313;48.834;9.228;2023-02-14T07:29:42;-1.30;99.90
10530;DHT22;5313;48.834;9.228;2023-02-14T07:32:08;-1.30;99.90
10530;DHT22;5313;48.834;9.228;2023-02-14T07:34:33;-1.20;99.90
10530;DHT22;5313;48.834;9.228;2023-02-14T07:37:00;-1.10;99.90
10530;DHT22;5313;48.834;9.228;2023-02-14T07:39:25;-1.10;99.90
10530;DHT22;5313;48.834;9.228;2023-02-14T07:41:51;-1.00;99.90
10530;DHT22;5313;48.834;9.228;2023-02-14T07:44:17;-1.10;99.90
10530;DHT22;5313;48.834;9.228;2023-02-14T07:46:42;-0.90;99.90
10530;DHT22;5313;48.834;9.228;2023-02-14T07:49:08;-1.10;99.90
10530;DHT22;5313;48.834;9.228;2023-02-14T07:51:33;-1.00;99.90
10530;DHT22;5313;48.834;9.228;2023-02-14T07:53:59;-0.90;99.90
10530;DHT22;5313;48.834;9.228;2023-02-14T07:56:24;-0.90;99.90
10530;DHT22;5313;48.834;9.228;2023-02-14T07:58:50;-0.90;99.90
10530;DHT22;5313;48.834;9.228;2023-02-14T08:01:16;-0.80;99.90
10530;DHT22;5313;48.834;9.228;2023-02-14T08:03:41;-0.70;99.90
10530;DHT22;5313;48.834;9.228;2023-02-14T08:06:17;-0.70;99.90
10530;DHT22;5313;48.834;9.228;2023-02-14T08:08:43;-0.60;99.90
10530;DHT22;5313;48.834;9.228;2023-02-14T08:11:09;-0.50;99.90
10530;DHT22;5313;48.834;9.228;2023-02-14T08:13:35;-0.40;99.90
10530;DHT22;5313;48.834;9.228;2023-02-14T08:16:00;-0.30;99.90
10530;DHT22;5313;48.834;9.228;2023-02-14T08:18:30;-0.30;99.90
10530;DHT22;5313;48.834;9.228;2023-02-14T08:20:56;-0.30;99.90
10530;DHT22;5313;48.834;9.228;2023-02-14T08:23:22;-0.10;99.90
10530;DHT22;5313;48.834;9.228;2023-02-14T08:25:48;-0.10;99.90
10530;DHT22;5313;48.834;9.228;2023-02-14T08:28:14;0.00;99.90
10530;DHT22;5313;48.834;9.228;2023-02-14T08:30:41;0.10;99.90
10530;DHT22;5313;48.834;9.228;2023-02-14T08:33:06;0.20;99.90
10530;DHT22;5313;48.834;9.228;2023-02-14T08:35:32;0.30;99.90
10530;DHT22;5313;48.834;9.228;2023-02-14T08:37:58;0.50;99.90
10530;DHT22;5313;48.834;9.228;2023-02-14T08:40:24;0.70;99.90
10530;DHT22;5313;48.834;9.228;2023-02-14T08:42:49;0.80;99.90
10530;DHT22;5313;48.834;9.228;2023-02-14T08:45:15;0.90;99.90
10530;DHT22;5313;48.834;9.228;2023-02-14T08:47:40;1.00;99.90
10530;DHT22;5313;48.834;9.228;2023-02-14T08:50:09;1.10;99.90
10530;DHT22;5313;48.834;9.228;2023-02-14T08:52:34;1.30;99.90
10530;DHT22;5313;48.834;9.228;2023-02-14T08:55:00;1.30;99.90
10530;DHT22;5313;48.834;9.228;2023-02-14T08:57:27;1.40;99.90
10530;DHT22;5313;48.834;9.228;2023-02-14T08:59:53;-0.20;99.90
10530;DHT22;5313;48.834;9.228;2023-02-14T09:02:18;1.60;99.90
10530;DHT22;5313;48.834;9.228;2023-02-14T09:04:44;1.80;99.90
10530;DHT22;5313;48.834;9.228;2023-02-14T09:07:12;2.00;99.90
10530;DHT22;5313;48.834;9.228;2023-02-14T09:09:38;2.30;99.90
10530;DHT22;5313;48.834;9.228;2023-02-14T09:12:04;2.40;99.90
10530;DHT22;5313;48.834;9.228;2023-02-14T09:14:37;2.60;99.90
10530;DHT22;5313;48.834;9.228;2023-02-14T09:17:03;2.80;99.90
10530;DHT22;5313;48.834;9.228;2023-02-14T09:19:34;2.90;99.90
10530;DHT22;5313;48.834;9.228;2023-02-14T09:22:00;3.10;99.90
10530;DHT22;5313;48.834;9.228;2023-02-14T09:24:28;3.50;99.90
10530;DHT22;5313;48.834;9.228;2023-02-14T09:26:54;3.70;99.90
10530;DHT22;5313;48.834;9.228;2023-02-14T09:29:21;3.80;99.90
10530;DHT22;5313;48.834;9.228;2023-02-14T09:31:47;3.90;99.90
10530;DHT22;5313;48.834;9.228;2023-02-14T09:34:12;3.70;99.90
10530;DHT22;5313;48.834;9.228;2023-02-14T09:36:38;4.00;99.90
10530;DHT22;5313;48.834;9.228;2023-02-14T09:39:22;4.10;99.90
10530;DHT22;5313;48.834;9.228;2023-02-14T09:44:52;4.20;99.90
10530;DHT22;5313;48.834;9.228;2023-02-14T09:47:39;4.20;99.90
10530;DHT22;5313;48.834;9.228;2023-02-14T09:50:23;4.40;99.90
10530;DHT22;5313;48.834;9.228;2023-02-14T09:52:55;4.60;99.90
10530;DHT22;5313;48.834;9.228;2023-02-14T09:55:28;5.00;99.90
10530;DHT22;5313;48.834;9.228;2023-02-14T09:58:28;4.80;99.90
10530;DHT22;5313;48.834;9.228;2023-02-14T10:03:55;4.90;99.90
10530;DHT22;5313;48.834;9.228;2023-02-14T10:09:42;5.40;99.90
10530;DHT22;5313;48.834;9.228;2023-02-14T10:12:30;5.80;99.90
10530;DHT22;5313;48.834;9.228;2023-02-14T10:14:59;6.00;99.90
10530;DHT22;5313;48.834;9.228;2023-02-14T10:17:43;6.20;99.90
10530;DHT22;5313;48.834;9.228;2023-02-14T10:20:30;6.40;99.90
10530;DHT22;5313;48.834;9.228;2023-02-14T10:26:05;6.30;99.90
10530;DHT22;5313;48.834;9.228;2023-02-14T10:28:34;6.00;99.90
10530;DHT22;5313;48.834;9.228;2023-02-14T10:31:20;6.40;99.90
10530;DHT22;5313;48.834;9.228;2023-02-14T10:36:30;7.00;99.90
10530;DHT22;5313;48.834;9.228;2023-02-14T10:41:51;7.00;99.90
10530;DHT22;5313;48.834;9.228;2023-02-14T10:44:33;7.50;99.90
10530;DHT22;5313;48.834;9.228;2023-02-14T10:47:06;7.80;99.90
10530;DHT22;5313;48.834;9.228;2023-02-14T10:50:12;7.90;99.90
10530;DHT22;5313;48.834;9.228;2023-02-14T10:52:39;8.20;99.90
10530;DHT22;5313;48.834;9.228;2023-02-14T10:58:03;9.00;99.90
10530;DHT22;5313;48.834;9.228;2023-02-14T11:00:33;9.20;99.90
10530;DHT22;5313;48.834;9.228;2023-02-14T11:03:01;9.20;99.90
10530;DHT22;5313;48.834;9.228;2023-02-14T11:05:37;9.40;99.90
10530;DHT22;5313;48.834;9.228;2023-02-14T11:08:14;9.30;99.90
10530;DHT22;5313;48.834;9.228;2023-02-14T11:10:40;9.10;99.90
10530;DHT22;5313;48.834;9.228;2023-02-14T11:13:26;8.70;99.90
10530;DHT22;5313;48.834;9.228;2023-02-14T11:15:52;8.60;99.90
10530;DHT22;5313;48.834;9.228;2023-02-14T11:18:23;8.80;99.90
10530;DHT22;5313;48.834;9.228;2023-02-14T11:23:45;8.60;99.90
10530;DHT22;5313;48.834;9.228;2023-02-14T11:26:21;8.70;99.90
10530;DHT22;5313;48.834;9.228;2023-02-14T11:28:57;8.70;99.90
10530;DHT22;5313;48.834;9.228;2023-02-14T11:31:29;9.20;99.90
10530;DHT22;5313;48.834;9.228;2023-02-14T11:33:55;8.80;99.90
10530;DHT22;5313;48.834;9.228;2023-02-14T11:36:22;8.70;99.90
10530;DHT22;5313;48.834;9.228;2023-02-14T11:38:55;8.70;99.90
10530;DHT22;5313;48.834;9.228;2023-02-14T11:41:23;8.70;99.90
10530;DHT22;5313;48.834;9.228;2023-02-14T11:43:48;9.00;99.90
10530;DHT22;5313;48.834;9.228;2023-02-14T11:51:28;10.10;99.90
10530;DHT22;5313;48.834;9.228;2023-02-14T11:53:56;10.20;99.90
10530;DHT22;5313;48.834;9.228;2023-02-14T11:56:48;9.80;99.90
10530;DHT22;5313;48.834;9.228;2023-02-14T12:00:03;10.40;99.90
10530;DHT22;5313;48.834;9.228;2023-02-14T12:02:40;10.30;99.90
10530;DHT22;5313;48.834;9.228;2023-02-14T12:05:20;10.00;99.90
10530;DHT22;5313;48.834;9.228;2023-02-14T12:08:02;10.40;99.90
10530;DHT22;5313;48.834;9.228;2023-02-14T12:10:29;10.30;99.90
10530;DHT22;5313;48.834;9.228;2023-02-14T12:12:57;10.40;99.90
10530;DHT22;5313;48.834;9.228;2023-02-14T12:18:29;10.80;99.90
10530;DHT22;5313;48.834;9.228;2023-02-14T12:21:22;10.60;99.90
10530;DHT22;5313;48.834;9.228;2023-02-14T12:29:15;11.50;99.90
10530;DHT22;5313;48.834;9.228;2023-02-14T12:31:42;11.70;99.90
10530;DHT22;5313;48.834;9.228;2023-02-14T12:34:10;10.70;99.90
10530;DHT22;5313;48.834;9.228;2023-02-14T12:42:30;10.70;99.90
10530;DHT22;5313;48.834;9.228;2023-02-14T12:45:19;11.20;99.90
10530;DHT22;5313;48.834;9.228;2023-02-14T12:50:37;11.10;99.90
10530;DHT22;5313;48.834;9.228;2023-02-14T12:53:09;11.20;99.90
10530;DHT22;5313;48.834;9.228;2023-02-14T12:55:56;11.50;99.90
10530;DHT22;5313;48.834;9.228;2023-02-14T13:04:52;11.40;99.90
10530;DHT22;5313;48.834;9.228;2023-02-14T13:07:31;11.70;99.90
10530;DHT22;5313;48.834;9.228;2023-02-14T13:10:29;11.40;99.90
10530;DHT22;5313;48.834;9.228;2023-02-14T13:13:05;11.80;99.90
10530;DHT22;5313;48.834;9.228;2023-02-14T13:15:47;12.60;99.90
10530;DHT22;5313;48.834;9.228;2023-02-14T13:18:49;13.20;99.90
10530;DHT22;5313;48.834;9.228;2023-02-14T13:21:23;12.40;99.90
10530;DHT22;5313;48.834;9.228;2023-02-14T13:23:53;12.50;99.90
10530;DHT22;5313;48.834;9.228;2023-02-14T13:26:34;12.90;99.90
10530;DHT22;5313;48.834;9.228;2023-02-14T13:29:26;12.10;99.90
10530;DHT22;5313;48.834;9.228;2023-02-14T13:31:59;11.90;99.90
10530;DHT22;5313;48.834;9.228;2023-02-14T13:34:32;11.70;99.90
10530;DHT22;5313;48.834;9.228;2023-02-14T13:37:01;11.80;99.90
10530;DHT22;5313;48.834;9.228;2023-02-14T13:39:40;12.20;99.90
10530;DHT22;5313;48.834;9.228;2023-02-14T13:42:11;12.00;99.90
10530;DHT22;5313;48.834;9.228;2023-02-14T13:44:46;12.00;99.90
10530;DHT22;5313;48.834;9.228;2023-02-14T13:47:20;12.40;99.90
10530;DHT22;5313;48.834;9.228;2023-02-14T13:49:58;12.20;99.90
10530;DHT22;5313;48.834;9.228;2023-02-14T13:52:46;12.40;99.90
10530;DHT22;5313;48.834;9.228;2023-02-14T13:55:21;12.30;99.90
10530;DHT22;5313;48.834;9.228;2023-02-14T14:00:40;12.10;99.90
10530;DHT22;5313;48.834;9.228;2023-02-14T14:06:09;11.60;99.90
10530;DHT22;5313;48.834;9.228;2023-02-14T14:08:45;11.20;99.90
10530;DHT22;5313;48.834;9.228;2023-02-14T14:14:02;10.80;99.90
10530;DHT22;5313;48.834;9.228;2023-02-14T14:16:33;11.00;99.90
10530;DHT22;5313;48.834;9.228;2023-02-14T14:21:43;11.10;99.90
10530;DHT22;5313;48.834;9.228;2023-02-14T14:26:45;11.00;99.90
10530;DHT22;5313;48.834;9.228;2023-02-14T14:31:49;10.50;99.90
10530;DHT22;5313;48.834;9.228;2023-02-14T14:34:21;10.40;99.90
10530;DHT22;5313;48.834;9.228;2023-02-14T14:36:49;10.30;99.90
10530;DHT22;5313;48.834;9.228;2023-02-14T14:39:28;10.30;99.90
10530;DHT22;5313;48.834;9.228;2023-02-14T14:42:03;10.30;99.90
10530;DHT22;5313;48.834;9.228;2023-02-14T14:44:30;10.10;99.90
10530;DHT22;5313;48.834;9.228;2023-02-14T14:46:58;10.00;99.90
10530;DHT22;5313;48.834;9.228;2023-02-14T14:49:24;10.00;99.90
10530;DHT22;5313;48.834;9.228;2023-02-14T14:51:50;9.90;99.90
10530;DHT22;5313;48.834;9.228;2023-02-14T14:54:19;10.00;99.90
10530;DHT22;5313;48.834;9.228;2023-02-14T14:56:54;10.10;99.90
10530;DHT22;5313;48.834;9.228;2023-02-14T14:59:31;10.00;99.90
10530;DHT22;5313;48.834;9.228;2023-02-14T15:02:03;9.80;99.90
10530;DHT22;5313;48.834;9.228;2023-02-14T15:04:33;9.80;99.90
10530;DHT22;5313;48.834;9.228;2023-02-14T15:07:26;9.90;99.90
10530;DHT22;5313;48.834;9.228;2023-02-14T15:09:52;9.70;99.90
10530;DHT22;5313;48.834;9.228;2023-02-14T15:12:21;9.70;99.90
10530;DHT22;5313;48.834;9.228;2023-02-14T15:15:08;9.60;99.90
10530;DHT22;5313;48.834;9.228;2023-02-14T15:17:36;9.60;99.90
10530;DHT22;5313;48.834;9.228;2023-02-14T15:20:08;9.40;99.90
10530;DHT22;5313;48.834;9.228;2023-02-14T15:22:43;9.30;99.90
10530;DHT22;5313;48.834;9.228;2023-02-14T15:25:12;9.30;99.90
10530;DHT22;5313;48.834;9.228;2023-02-14T15:27:41;9.30;99.90
10530;DHT22;5313;48.834;9.228;2023-02-14T15:32:49;9.20;99.90
10530;DHT22;5313;48.834;9.228;2023-02-14T15:35:17;9.30;99.90
10530;DHT22;5313;48.834;9.228;2023-02-14T15:37:44;9.20;99.90
10530;DHT22;5313;48.834;9.228;2023-02-14T15:40:25;9.10;99.90
10530;DHT22;5313;48.834;9.228;2023-02-14T15:42:52;9.30;99.90
10530;DHT22;5313;48.834;9.228;2023-02-14T15:45:29;9.10;99.90
10530;DHT22;5313;48.834;9.228;2023-02-14T15:48:04;9.00;99.90
10530;DHT22;5313;48.834;9.228;2023-02-14T15:50:50;9.10;99.90
10530;DHT22;5313;48.834;9.228;2023-02-14T15:53:39;9.00;99.90
10530;DHT22;5313;48.834;9.228;2023-02-14T15:56:23;8.90;99.90
10530;DHT22;5313;48.834;9.228;2023-02-14T15:59:03;8.90;99.90
10530;DHT22;5313;48.834;9.228;2023-02-14T16:01:32;8.80;99.90
10530;DHT22;5313;48.834;9.228;2023-02-14T16:04:00;8.70;99.90
10530;DHT22;5313;48.834;9.228;2023-02-14T16:06:35;8.60;99.90
10530;DHT22;5313;48.834;9.228;2023-02-14T16:09:04;8.60;99.90
10530;DHT22;5313;48.834;9.228;2023-02-14T16:11:35;8.40;99.90
10530;DHT22;5313;48.834;9.228;2023-02-14T16:14:32;8.30;99.90
10530;DHT22;5313;48.834;9.228;2023-02-14T16:17:12;8.10;99.90
10530;DHT22;5313;48.834;9.228;2023-02-14T16:19:43;8.10;99.90
10530;DHT22;5313;48.834;9.228;2023-02-14T16:22:10;8.00;99.90
10530;DHT22;5313;48.834;9.228;2023-02-14T16:24:37;7.90;99.90
10530;DHT22;5313;48.834;9.228;2023-02-14T16:27:04;7.80;99.90
10530;DHT22;5313;48.834;9.228;2023-02-14T16:29:34;7.70;99.90
10530;DHT22;5313;48.834;9.228;2023-02-14T16:32:10;7.70;99.90
10530;DHT22;5313;48.834;9.228;2023-02-14T16:34:37;7.50;99.90
10530;DHT22;5313;48.834;9.228;2023-02-14T16:37:21;7.40;99.90
10530;DHT22;5313;48.834;9.228;2023-02-14T16:39:49;7.20;99.90
10530;DHT22;5313;48.834;9.228;2023-02-14T16:42:16;7.10;99.90
10530;DHT22;5313;48.834;9.228;2023-02-14T16:44:43;7.00;99.90
10530;DHT22;5313;48.834;9.228;2023-02-14T16:47:12;7.00;99.90
10530;DHT22;5313;48.834;9.228;2023-02-14T16:49:39;6.90;99.90
10530;DHT22;5313;48.834;9.228;2023-02-14T16:52:05;6.80;99.90
10530;DHT22;5313;48.834;9.228;2023-02-14T16:54:31;6.80;99.90
10530;DHT22;5313;48.834;9.228;2023-02-14T16:56:59;6.60;99.90
10530;DHT22;5313;48.834;9.228;2023-02-14T16:59:26;6.60;99.90
10530;DHT22;5313;48.834;9.228;2023-02-14T17:01:52;6.50;99.90
10530;DHT22;5313;48.834;9.228;2023-02-14T17:04:17;6.50;99.90
10530;DHT22;5313;48.834;9.228;2023-02-14T17:06:48;6.40;99.90
10530;DHT22;5313;48.834;9.228;2023-02-14T17:09:20;6.40;99.90
10530;DHT22;5313;48.834;9.228;2023-02-14T17:11:49;6.40;99.90
10530;DHT22;5313;48.834;9.228;2023-02-14T17:14:21;6.30;99.90
10530;DHT22;5313;48.834;9.228;2023-02-14T17:16:48;6.20;99.90
10530;DHT22;5313;48.834;9.228;2023-02-14T17:19:14;6.10;99.90
10530;DHT22;5313;48.834;9.228;2023-02-14T17:21:40;6.20;99.90
10530;DHT22;5313;48.834;9.228;2023-02-14T17:24:05;6.20;99.90
10530;DHT22;5313;48.834;9.228;2023-02-14T17:26:31;6.10;99.90
10530;DHT22;5313;48.834;9.228;2023-02-14T17:28:58;6.00;99.90
10530;DHT22;5313;48.834;9.228;2023-02-14T17:31:23;6.00;99.90
10530;DHT22;5313;48.834;9.228;2023-02-14T17:33:49;5.90;99.90
10530;DHT22;5313;48.834;9.228;2023-02-14T17:36:15;6.00;99.90
10530;DHT22;5313;48.834;9.228;2023-02-14T17:38:41;9.30;99.90
10530;DHT22;5313;48.834;9.228;2023-02-14T17:41:19;5.90;99.90
10530;DHT22;5313;48.834;9.228;2023-02-14T17:43:50;5.90;99.90
10530;DHT22;5313;48.834;9.228;2023-02-14T17:46:17;5.80;99.90
10530;DHT22;5313;48.834;9.228;2023-02-14T17:48:43;5.80;99.90
10530;DHT22;5313;48.834;9.228;2023-02-14T17:51:15;5.60;99.90
10530;DHT22;5313;48.834;9.228;2023-02-14T17:53:40;5.60;99.90
10530;DHT22;5313;48.834;9.228;2023-02-14T17:56:12;5.60;99.90
10530;DHT22;5313;48.834;9.228;2023-02-14T17:58:38;5.50;99.90
10530;DHT22;5313;48.834;9.228;2023-02-14T18:01:09;5.40;99.90